createdAt,value
2023-04-15T00:00:45.890Z,192.20
2023-04-15T00:01:45.951Z,194.83
2023-04-15T00:02:45.967Z,192.86
2023-04-15T00:03:45.913Z,191.85
2023-04-15T00:04:45.822Z,193.14
2023-04-15T00:05:45.792Z,193.68
2023-04-15T00:06:45.745Z,194.61
2023-04-15T00:07:45.744Z,192.20
2023-04-15T00:08:45.762Z,192.77
2023-04-15T00:09:45.692Z,193.67
2023-04-15T00:10:45.688Z,192.73
2023-04-15T00:11:45.676Z,193.00
2023-04-15T00:12:45.661Z,193.56
2023-04-15T00:13:45.636Z,192.49
2023-04-15T00:14:45.623Z,194.10
2023-04-15T00:15:45.597Z,192.06
2023-04-15T00:16:45.643Z,192.87
2023-04-15T00:17:45.604Z,192.39
2023-04-15T00:18:45.575Z,192.90
2023-04-15T00:19:45.526Z,192.34
2023-04-15T00:20:45.507Z,191.90
2023-04-15T00:21:45.490Z,192.42
2023-04-15T00:22:45.476Z,194.64
2023-04-15T00:23:45.480Z,192.52
2023-04-15T00:24:45.452Z,192.59
2023-04-15T00:25:45.417Z,193.12
2023-04-15T00:26:45.395Z,191.59
2023-04-15T00:27:45.392Z,191.86
2023-04-15T00:28:45.366Z,192.54
2023-04-15T00:29:45.359Z,191.03
2023-04-15T00:30:45.359Z,192.05
2023-04-15T00:31:45.327Z,192.72
2023-04-15T00:32:45.333Z,191.29
2023-04-15T00:33:45.304Z,191.83
2023-04-15T00:34:45.266Z,193.18
2023-04-15T00:35:45.264Z,193.23
2023-04-15T00:36:45.235Z,193.25
2023-04-15T00:37:46.192Z,193.15
2023-04-15T00:38:45.262Z,192.91
2023-04-15T00:39:45.186Z,193.24
2023-04-15T00:40:45.176Z,194.03
2023-04-15T00:41:45.158Z,193.32
2023-04-15T00:42:45.135Z,193.92
2023-04-15T00:43:45.130Z,191.23
2023-04-15T00:44:45.098Z,191.78
2023-04-15T00:45:45.103Z,192.05
2023-04-15T00:46:45.062Z,192.91
2023-04-15T00:47:45.082Z,192.44
2023-04-15T00:48:45.039Z,192.73
2023-04-15T00:49:45.032Z,191.59
2023-04-15T00:50:45.012Z,191.48
2023-04-15T00:51:44.979Z,191.35
2023-04-15T00:52:44.976Z,190.85
2023-04-15T00:53:44.951Z,191.39
2023-04-15T00:54:44.930Z,193.53
2023-04-15T00:55:44.919Z,191.16
2023-04-15T00:56:44.888Z,191.60
2023-04-15T00:57:44.873Z,191.54
2023-04-15T00:58:44.866Z,192.95
2023-04-15T00:59:44.845Z,191.01
2023-04-15T01:00:44.827Z,190.44
2023-04-15T01:01:44.969Z,191.81
2023-04-15T01:02:44.909Z,193.14
2023-04-15T01:03:45.092Z,190.91
2023-04-15T01:04:44.786Z,192.39
2023-04-15T01:05:44.774Z,191.79
2023-04-15T01:06:44.749Z,190.90
2023-04-15T01:07:44.757Z,191.85
2023-04-15T01:08:44.758Z,190.99
2023-04-15T01:09:44.727Z,190.76
2023-04-15T01:10:44.716Z,190.97
2023-04-15T01:11:44.697Z,193.33
2023-04-15T01:12:44.696Z,190.90
2023-04-15T01:13:44.686Z,191.05
2023-04-15T01:14:44.659Z,191.21
2023-04-15T01:15:44.655Z,191.70
2023-04-15T01:16:44.636Z,192.53
2023-04-15T01:17:44.666Z,192.99
2023-04-15T01:18:44.643Z,191.28
2023-04-15T01:19:44.623Z,191.39
2023-04-15T01:20:44.632Z,191.82
2023-04-15T01:21:44.611Z,192.33
2023-04-15T01:22:44.594Z,191.09
2023-04-15T01:23:44.577Z,191.81
2023-04-15T01:24:44.564Z,191.05
2023-04-15T01:25:44.563Z,193.51
2023-04-15T01:26:44.683Z,192.12
2023-04-15T01:27:44.544Z,191.25
2023-04-15T01:28:44.544Z,192.12
2023-04-15T01:29:44.520Z,190.88
2023-04-15T01:30:44.517Z,190.42
2023-04-15T01:31:44.586Z,191.90
2023-04-15T01:32:44.538Z,190.89
2023-04-15T01:33:44.494Z,190.24
2023-04-15T01:34:44.500Z,193.19
2023-04-15T01:35:44.470Z,191.20
2023-04-15T01:36:44.478Z,191.05
2023-04-15T01:37:44.438Z,191.89
2023-04-15T01:38:44.427Z,190.97
2023-04-15T01:39:44.429Z,191.23
2023-04-15T01:40:44.416Z,192.48
2023-04-15T01:41:44.404Z,191.99
2023-04-15T01:42:44.386Z,191.81
2023-04-15T01:43:44.370Z,191.93
2023-04-15T01:44:44.367Z,191.23
2023-04-15T01:45:44.352Z,192.08
2023-04-15T01:46:44.387Z,190.30
2023-04-15T01:47:44.356Z,191.49
2023-04-15T01:48:44.303Z,190.88
2023-04-15T01:49:44.292Z,189.90
2023-04-15T01:50:44.285Z,190.61
2023-04-15T01:51:44.273Z,193.13
2023-04-15T01:52:44.263Z,188.68
2023-04-15T01:53:44.238Z,190.29
2023-04-15T01:54:44.254Z,192.28
2023-04-15T01:55:44.230Z,193.01
2023-04-15T01:56:44.215Z,189.94
2023-04-15T01:57:44.194Z,189.67
2023-04-15T01:58:44.182Z,192.49
2023-04-15T01:59:44.191Z,189.24
2023-04-15T02:00:44.223Z,190.13
2023-04-15T02:01:44.190Z,191.36
2023-04-15T02:02:44.288Z,190.90
2023-04-15T02:03:44.268Z,191.09
2023-04-15T02:04:44.136Z,191.69
2023-04-15T02:05:44.135Z,190.17
2023-04-15T02:06:44.109Z,191.26
2023-04-15T02:07:44.118Z,191.59
2023-04-15T02:08:44.094Z,190.41
2023-04-15T02:09:44.087Z,189.78
2023-04-15T02:10:44.072Z,189.47
2023-04-15T02:11:44.056Z,188.15
2023-04-15T02:12:44.055Z,188.73
2023-04-15T02:13:44.029Z,192.09
2023-04-15T02:14:44.032Z,189.80
2023-04-15T02:15:44.045Z,189.15
2023-04-15T02:16:44.028Z,191.25
2023-04-15T02:17:44.040Z,191.44
2023-04-15T02:18:44.005Z,190.03
2023-04-15T02:19:43.998Z,189.52
2023-04-15T02:20:43.998Z,191.72
2023-04-15T02:21:43.984Z,189.19
2023-04-15T02:22:43.964Z,189.27
2023-04-15T02:23:44.020Z,189.52
2023-04-15T02:24:43.948Z,190.04
2023-04-15T02:25:53.346Z,191.65
2023-04-15T02:26:44.921Z,191.67
2023-04-15T02:27:43.910Z,191.61
2023-04-15T02:28:43.878Z,191.02
2023-04-15T02:29:43.867Z,192.25
2023-04-15T02:30:43.843Z,192.36
2023-04-15T02:31:43.869Z,189.65
2023-04-15T02:32:43.863Z,189.76
2023-04-15T02:33:43.809Z,189.84
2023-04-15T02:34:43.802Z,189.66
2023-04-15T02:35:43.787Z,191.34
2023-04-15T02:36:43.776Z,190.91
2023-04-15T02:37:44.061Z,191.50
2023-04-15T02:38:43.765Z,189.65
2023-04-15T02:39:43.766Z,188.56
2023-04-15T02:40:43.729Z,191.56
2023-04-15T02:41:43.760Z,188.39
2023-04-15T02:42:43.704Z,190.52
2023-04-15T02:43:43.689Z,189.49
2023-04-15T02:44:43.688Z,179.73
2023-04-15T02:45:43.749Z,177.04
2023-04-15T02:46:43.663Z,176.91
2023-04-15T02:47:43.650Z,163.37
2023-04-15T02:48:43.634Z,156.27
2023-04-15T02:49:43.619Z,150.83
2023-04-15T02:50:43.607Z,148.84
2023-04-15T02:51:43.601Z,146.02
2023-04-15T02:52:43.586Z,140.67
2023-04-15T02:53:43.592Z,134.60
2023-04-15T02:54:43.570Z,133.51
2023-04-15T02:55:43.541Z,127.44
2023-04-15T02:56:43.524Z,123.70
2023-04-15T02:57:43.517Z,120.73
2023-04-15T02:58:43.523Z,119.33
2023-04-15T02:59:43.495Z,116.76
2023-04-15T03:00:43.493Z,112.03
2023-04-15T03:01:43.497Z,113.72
2023-04-15T03:02:43.731Z,106.97
2023-04-15T03:03:43.584Z,107.04
2023-04-15T03:04:43.464Z,103.31
2023-04-15T03:05:43.453Z,101.75
2023-04-15T03:06:43.431Z,101.23
2023-04-15T03:07:43.521Z,98.71
2023-04-15T03:08:43.432Z,99.34
2023-04-15T03:09:43.438Z,99.69
2023-04-15T03:10:43.488Z,97.17
2023-04-15T03:11:43.508Z,95.36
2023-04-15T03:12:43.541Z,94.56
2023-04-15T03:13:43.583Z,93.21
2023-04-15T03:14:43.634Z,92.29
2023-04-15T03:15:43.709Z,90.87
2023-04-15T03:16:43.745Z,90.51
2023-04-15T03:17:43.812Z,89.49
2023-04-15T03:18:43.846Z,90.37
2023-04-15T03:19:43.885Z,89.34
2023-04-15T03:20:44.020Z,87.09
2023-04-15T03:21:44.007Z,86.95
2023-04-15T03:22:44.073Z,85.44
2023-04-15T03:23:44.118Z,84.26
2023-04-15T03:24:44.224Z,85.32
2023-04-15T03:25:44.212Z,83.11
2023-04-15T03:26:44.264Z,83.59
2023-04-15T03:27:44.388Z,81.87
2023-04-15T03:28:44.381Z,80.30
2023-04-15T03:29:44.445Z,80.74
2023-04-15T03:30:44.500Z,78.54
2023-04-15T03:31:44.556Z,78.16
2023-04-15T03:32:44.641Z,75.80
2023-04-15T03:33:44.675Z,75.82
2023-04-15T03:34:44.729Z,75.03
2023-04-15T03:35:44.830Z,75.72
2023-04-15T03:36:44.860Z,76.04
2023-04-15T03:37:44.924Z,77.09
2023-04-15T03:38:44.960Z,76.33
2023-04-15T03:39:45.014Z,74.67
2023-04-15T03:40:45.063Z,74.40
2023-04-15T03:41:45.120Z,76.04
2023-04-15T03:42:45.144Z,75.71
2023-04-15T03:43:45.169Z,76.58
2023-04-15T03:44:45.181Z,75.22
2023-04-15T03:45:45.223Z,75.09
2023-04-15T03:46:45.253Z,75.13
2023-04-15T03:47:45.223Z,75.06
2023-04-15T03:48:45.199Z,73.46
2023-04-15T03:49:45.195Z,72.98
2023-04-15T03:50:45.186Z,72.49
2023-04-15T03:51:45.178Z,71.49
2023-04-15T03:52:45.172Z,71.63
2023-04-15T03:53:45.178Z,71.79
2023-04-15T03:54:45.176Z,70.24
2023-04-15T03:55:45.172Z,69.22
2023-04-15T03:56:45.158Z,70.31
2023-04-15T03:57:45.149Z,70.28
2023-04-15T03:58:45.150Z,69.44
2023-04-15T03:59:45.166Z,70.18
2023-04-15T04:00:45.149Z,68.85
2023-04-15T04:01:45.242Z,69.98
2023-04-15T04:02:45.288Z,68.74
2023-04-15T04:03:45.310Z,69.09
2023-04-15T04:04:45.171Z,69.70
2023-04-15T04:05:45.153Z,67.77
2023-04-15T04:06:45.142Z,69.18
2023-04-15T04:07:45.143Z,69.13
2023-04-15T04:08:45.155Z,67.30
2023-04-15T04:09:46.649Z,65.81
2023-04-15T04:10:45.160Z,65.90
2023-04-15T04:11:45.135Z,65.99
2023-04-15T04:12:45.141Z,66.04
2023-04-15T04:13:45.134Z,64.81
2023-04-15T04:14:45.139Z,66.87
2023-04-15T04:15:45.182Z,65.50
2023-04-15T04:16:45.145Z,64.91
2023-04-15T04:17:45.167Z,64.98
2023-04-15T04:18:45.115Z,66.09
2023-04-15T04:19:45.099Z,66.00
2023-04-15T04:20:45.105Z,66.31
2023-04-15T04:21:45.090Z,65.61
2023-04-15T04:22:45.083Z,66.10
2023-04-15T04:23:45.076Z,65.08
2023-04-15T04:24:45.070Z,67.08
2023-04-15T04:25:45.084Z,66.52
2023-04-15T04:26:45.068Z,64.66
2023-04-15T04:27:45.045Z,63.07
2023-04-15T04:28:45.043Z,62.58
2023-04-15T04:29:45.035Z,60.95
2023-04-15T04:30:45.029Z,60.38
2023-04-15T04:31:45.038Z,61.66
2023-04-15T04:32:45.052Z,60.31
2023-04-15T04:33:45.005Z,59.84
2023-04-15T04:34:45.029Z,60.17
2023-04-15T04:35:45.056Z,60.97
2023-04-15T04:36:45.051Z,59.52
2023-04-15T04:37:45.080Z,59.99
2023-04-15T04:38:45.060Z,59.98
2023-04-15T04:39:45.062Z,59.93
2023-04-15T04:40:45.078Z,59.51
2023-04-15T04:41:45.070Z,59.80
2023-04-15T04:42:45.101Z,59.83
2023-04-15T04:43:45.100Z,59.55
2023-04-15T04:44:45.127Z,58.70
2023-04-15T04:45:45.141Z,59.35
2023-04-15T04:46:45.134Z,59.14
2023-04-15T04:47:45.225Z,59.46
2023-04-15T04:48:47.076Z,59.23
2023-04-15T04:49:45.175Z,59.44
2023-04-15T04:50:45.203Z,59.54
2023-04-15T04:51:45.239Z,58.75
2023-04-15T04:52:45.227Z,61.68
2023-04-15T04:53:45.262Z,60.46
2023-04-15T04:54:45.265Z,58.96
2023-04-15T04:55:45.277Z,59.29
2023-04-15T04:56:45.297Z,58.71
2023-04-15T04:57:45.313Z,58.38
2023-04-15T04:58:45.337Z,58.03
2023-04-15T04:59:45.350Z,56.66
2023-04-15T05:00:45.390Z,57.12
2023-04-15T05:01:45.539Z,57.15
2023-04-15T05:02:45.530Z,57.55
2023-04-15T05:03:45.536Z,58.85
2023-04-15T05:04:45.461Z,56.97
2023-04-15T05:05:45.458Z,56.99
2023-04-15T05:06:45.451Z,57.08
2023-04-15T05:07:45.451Z,56.48
2023-04-15T05:08:45.471Z,55.58
2023-04-15T05:09:45.472Z,55.87
2023-04-15T05:10:45.498Z,56.36
2023-04-15T05:11:45.512Z,54.50
2023-04-15T05:12:45.522Z,55.47
2023-04-15T05:13:45.536Z,54.42
2023-04-15T05:14:45.553Z,56.30
2023-04-15T05:15:45.609Z,57.51
2023-04-15T05:16:45.607Z,57.67
2023-04-15T05:17:45.662Z,58.46
2023-04-15T05:18:45.628Z,57.99
2023-04-15T05:19:45.643Z,59.27
2023-04-15T05:20:45.648Z,60.32
2023-04-15T05:21:45.672Z,61.78
2023-04-15T05:22:45.681Z,61.15
2023-04-15T05:23:45.695Z,61.62
2023-04-15T05:24:45.725Z,61.35
2023-04-15T05:25:45.745Z,62.59
2023-04-15T05:26:45.771Z,62.64
2023-04-15T05:27:45.777Z,63.54
2023-04-15T05:28:45.794Z,62.86
2023-04-15T05:29:45.817Z,64.87
2023-04-15T05:30:45.856Z,62.62
2023-04-15T05:31:45.859Z,62.65
2023-04-15T05:32:45.920Z,65.27
2023-04-15T05:33:45.880Z,64.77
2023-04-15T05:34:45.920Z,64.71
2023-04-15T05:35:45.939Z,63.89
2023-04-15T05:36:45.953Z,64.00
2023-04-15T05:37:45.970Z,62.66
2023-04-15T05:38:45.992Z,63.18
2023-04-15T05:39:46.007Z,63.67
2023-04-15T05:40:46.025Z,63.92
2023-04-15T05:41:46.071Z,65.37
2023-04-15T05:42:46.064Z,64.71
2023-04-15T05:43:46.068Z,64.30
2023-04-15T05:44:46.089Z,63.19
2023-04-15T05:45:46.203Z,62.79
2023-04-15T05:46:46.125Z,62.23
2023-04-15T05:49:05.216Z,25.00
2023-04-15T05:50:05.214Z,25.00
2023-04-15T05:51:05.210Z,25.00
2023-04-15T05:52:05.217Z,25.00
2023-04-15T05:53:05.225Z,25.00
2023-04-15T05:54:05.232Z,25.00
2023-04-15T05:55:05.245Z,25.82
2023-04-15T05:56:05.253Z,25.00
2023-04-15T05:57:05.244Z,25.11
2023-04-15T05:58:05.255Z,21.11
2023-04-15T05:59:05.271Z,22.39
2023-04-15T06:00:05.229Z,18.43
2023-04-15T06:01:05.233Z,13.65
2023-04-15T06:02:05.244Z,27.68
2023-04-15T06:03:05.290Z,25.00
2023-04-15T06:04:05.333Z,25.00
2023-04-15T06:05:05.420Z,25.41
2023-04-15T06:06:05.236Z,25.50
2023-04-15T06:07:05.267Z,26.63
2023-04-15T06:08:05.207Z,28.46
2023-04-15T06:09:05.210Z,31.40
2023-04-15T06:10:05.169Z,31.96
2023-04-15T06:11:05.167Z,34.18
2023-04-15T06:12:05.180Z,31.68
2023-04-15T06:13:05.174Z,30.50
2023-04-15T06:14:05.163Z,30.71
2023-04-15T06:15:05.152Z,31.12
2023-04-15T06:16:05.199Z,30.98
2023-04-15T06:17:05.177Z,28.56
2023-04-15T06:18:05.155Z,31.62
2023-04-15T06:19:05.159Z,29.07
2023-04-15T06:20:05.151Z,29.53
2023-04-15T06:21:05.150Z,29.67
2023-04-15T06:22:05.157Z,29.58
2023-04-15T06:23:05.137Z,29.79
2023-04-15T06:24:05.147Z,29.36
2023-04-15T06:25:05.149Z,29.26
2023-04-15T06:26:05.144Z,33.41
2023-04-15T06:27:05.141Z,31.54
2023-04-15T06:28:05.144Z,27.85
2023-04-15T06:29:05.139Z,31.73
2023-04-15T06:30:05.217Z,29.43
2023-04-15T06:31:05.145Z,26.24
2023-04-15T06:32:05.177Z,27.09
2023-04-15T06:33:05.152Z,27.27
2023-04-15T06:34:05.143Z,25.41
2023-04-15T06:35:05.149Z,26.46
2023-04-15T06:36:05.147Z,27.29
2023-04-15T06:37:06.398Z,24.90
2023-04-15T06:38:05.153Z,27.90
2023-04-15T06:39:05.133Z,26.92
2023-04-15T06:40:05.203Z,26.99
2023-04-15T06:41:05.128Z,25.00
2023-04-15T06:42:05.124Z,27.59
2023-04-15T06:43:05.112Z,25.78
2023-04-15T06:44:05.112Z,25.00
2023-04-15T06:45:05.109Z,25.22
2023-04-15T06:46:05.156Z,26.89
2023-04-15T06:47:05.120Z,25.00
2023-04-15T06:48:05.108Z,25.43
2023-04-15T06:49:05.107Z,25.39
2023-04-15T06:50:05.135Z,25.59
2023-04-15T06:51:05.134Z,25.58
2023-04-15T06:52:05.128Z,25.00
2023-04-15T06:53:05.110Z,25.95
2023-04-15T06:54:05.106Z,25.76
2023-04-15T06:55:05.121Z,26.84
2023-04-15T06:56:05.116Z,25.00
2023-04-15T06:57:05.144Z,27.38
2023-04-15T06:58:05.101Z,26.93
2023-04-15T06:59:05.095Z,25.00
2023-04-15T07:00:05.100Z,25.98
2023-04-15T07:01:05.170Z,25.00
2023-04-15T07:02:05.165Z,25.40
2023-04-15T07:03:05.110Z,25.00
2023-04-15T07:04:05.124Z,26.74
2023-04-15T07:05:05.068Z,25.00
2023-04-15T07:06:05.073Z,27.50
2023-04-15T07:07:05.074Z,25.00
2023-04-15T07:08:05.073Z,27.24
2023-04-15T07:09:05.562Z,29.35
2023-04-15T07:10:05.070Z,30.06
2023-04-15T07:11:05.067Z,26.38
2023-04-15T07:12:05.074Z,25.27
2023-04-15T07:13:05.091Z,25.29
2023-04-15T07:14:05.085Z,25.79
2023-04-15T07:15:05.088Z,25.00
2023-04-15T07:16:05.076Z,25.56
2023-04-15T07:17:05.165Z,26.53
2023-04-15T07:18:05.082Z,27.19
2023-04-15T07:19:05.085Z,27.67
2023-04-15T07:20:05.093Z,26.14
2023-04-15T07:21:05.072Z,25.36
2023-04-15T07:22:05.098Z,29.51
2023-04-15T07:23:05.108Z,25.00
2023-04-15T07:24:05.108Z,25.00
2023-04-15T07:25:05.130Z,25.00
2023-04-15T07:26:05.141Z,28.41
2023-04-15T07:27:05.169Z,27.06
2023-04-15T07:28:05.182Z,25.00
2023-04-15T07:29:05.179Z,26.06
2023-04-15T07:30:05.204Z,27.56
2023-04-15T07:31:05.278Z,25.00
2023-04-15T07:32:05.247Z,25.25
2023-04-15T07:33:05.249Z,26.98
2023-04-15T07:34:05.279Z,30.32
2023-04-15T07:35:05.281Z,28.01
2023-04-15T07:36:05.303Z,29.90
2023-04-15T07:37:05.323Z,28.18
2023-04-15T07:38:05.338Z,28.87
2023-04-15T07:39:05.347Z,29.06
2023-04-15T07:40:05.385Z,29.31
2023-04-15T07:41:05.377Z,27.06
2023-04-15T07:42:05.385Z,28.53
2023-04-15T07:43:05.383Z,28.63
2023-04-15T07:44:05.408Z,28.54
2023-04-15T07:45:05.391Z,25.81
2023-04-15T07:46:05.423Z,25.45
2023-04-15T07:47:05.414Z,33.23
2023-04-15T07:48:05.430Z,30.77
2023-04-15T07:49:05.388Z,31.52
2023-04-15T07:50:05.384Z,29.49
2023-04-15T07:51:05.379Z,25.33
2023-04-15T07:52:05.392Z,26.11
2023-04-15T07:53:05.390Z,25.50
2023-04-15T07:54:05.379Z,26.76
2023-04-15T07:55:05.370Z,26.41
2023-04-15T07:56:05.366Z,27.69
2023-04-15T07:57:05.364Z,26.27
2023-04-15T07:58:05.378Z,30.19
2023-04-15T07:59:05.383Z,25.26
2023-04-15T08:00:05.379Z,26.39
2023-04-15T08:01:05.370Z,26.35
2023-04-15T08:02:05.416Z,26.02
2023-04-15T08:03:05.613Z,26.04
2023-04-15T08:04:05.478Z,26.44
2023-04-15T08:05:05.416Z,23.43
2023-04-15T08:06:05.382Z,21.67
2023-04-15T08:07:05.394Z,16.91
2023-04-15T08:08:05.415Z,26.56
2023-04-15T08:09:05.416Z,30.56
2023-04-15T08:10:05.400Z,25.00
2023-04-15T08:11:05.396Z,25.09
2023-04-15T08:12:05.400Z,27.24
2023-04-15T08:13:05.405Z,25.00
2023-04-15T08:14:05.392Z,28.05
2023-04-15T08:15:05.391Z,25.15
2023-04-15T08:16:05.442Z,25.53
2023-04-15T08:17:05.405Z,26.64
2023-04-15T08:18:05.413Z,26.69
2023-04-15T08:19:05.433Z,30.31
2023-04-15T08:20:05.414Z,25.00
2023-04-15T08:21:05.413Z,23.56
2023-04-15T08:22:05.415Z,25.82
2023-04-15T08:23:06.426Z,25.23
2023-04-15T08:24:05.417Z,25.22
2023-04-15T08:25:05.402Z,21.05
2023-04-15T08:26:05.399Z,22.48
2023-04-15T08:27:05.431Z,24.60
2023-04-15T08:28:05.398Z,29.61
2023-04-15T08:29:05.408Z,25.00
2023-04-15T08:30:05.437Z,27.58
2023-04-15T08:31:05.413Z,29.91
2023-04-15T08:32:05.435Z,30.36
2023-04-15T08:33:05.389Z,31.34
2023-04-15T08:34:05.406Z,27.96
2023-04-15T08:35:05.406Z,30.18
2023-04-15T08:36:05.389Z,32.63
2023-04-15T08:37:05.386Z,31.74
2023-04-15T08:38:05.426Z,31.85
2023-04-15T08:39:05.420Z,32.51
2023-04-15T08:40:05.399Z,32.48
2023-04-15T08:41:05.388Z,35.24
2023-04-15T08:42:05.389Z,42.13
2023-04-15T08:43:05.405Z,36.09
2023-04-15T08:44:05.421Z,31.90
2023-04-15T08:45:05.433Z,37.24
2023-04-15T08:46:05.409Z,58.37
2023-04-15T08:47:05.447Z,66.22
2023-04-15T08:48:05.448Z,80.79
2023-04-15T08:49:05.434Z,103.51
2023-04-15T08:50:05.418Z,104.38
2023-04-15T08:51:05.428Z,111.27
2023-04-15T08:52:05.417Z,128.27
2023-04-15T08:53:05.428Z,160.88
2023-04-15T08:54:05.490Z,207.48
2023-04-15T08:55:05.414Z,226.55
2023-04-15T08:56:05.440Z,226.97
2023-04-15T08:57:05.425Z,230.41
2023-04-15T08:58:05.420Z,240.87
2023-04-15T08:59:05.416Z,253.40
2023-04-15T09:00:05.826Z,281.68
2023-04-15T09:01:05.506Z,250.00
2023-04-15T09:02:05.401Z,250.00
2023-04-15T09:03:05.463Z,250.27
2023-04-15T09:04:05.393Z,252.01
2023-04-15T09:05:05.359Z,258.33
2023-04-15T09:06:05.359Z,269.69
2023-04-15T09:07:05.348Z,287.26
2023-04-15T09:08:05.424Z,270.88
2023-04-15T09:09:05.320Z,256.47
2023-04-15T09:10:05.361Z,249.11
2023-04-15T09:11:05.293Z,248.75
2023-04-15T09:12:05.280Z,250.97
2023-04-15T09:13:05.277Z,250.66
2023-04-15T09:14:05.284Z,250.91
2023-04-15T09:15:05.243Z,252.29
2023-04-15T09:16:05.251Z,253.70
2023-04-15T09:17:05.282Z,261.35
2023-04-15T09:18:05.175Z,270.76
2023-04-15T09:19:05.156Z,257.84
2023-04-15T09:20:05.144Z,249.48
2023-04-15T09:21:05.134Z,250.00
2023-04-15T09:22:05.108Z,248.25
2023-04-15T09:23:05.101Z,249.87
2023-04-15T09:24:05.223Z,247.50
2023-04-15T09:25:05.054Z,248.84
2023-04-15T09:26:05.012Z,250.00
2023-04-15T09:27:04.986Z,250.00
2023-04-15T09:28:04.958Z,247.25
2023-04-15T09:29:04.939Z,248.97
2023-04-15T09:30:04.932Z,250.00
2023-04-15T09:31:05.013Z,250.00
2023-04-15T09:32:04.880Z,250.00
2023-04-15T09:33:04.975Z,249.27
2023-04-15T09:34:04.843Z,250.00
2023-04-15T09:35:04.829Z,250.00
2023-04-15T09:36:04.849Z,247.94
2023-04-15T09:37:04.789Z,249.67
2023-04-15T09:38:04.848Z,250.00
2023-04-15T09:39:04.763Z,250.22
2023-04-15T09:40:04.729Z,248.36
2023-04-15T09:41:04.710Z,248.78
2023-04-15T09:42:04.723Z,248.17
2023-04-15T09:43:04.724Z,248.78
2023-04-15T09:44:04.784Z,250.00
2023-04-15T09:45:04.807Z,248.77
2023-04-15T09:46:04.898Z,250.07
2023-04-15T09:47:04.964Z,250.00
2023-04-15T09:48:05.018Z,250.00
2023-04-15T09:49:05.057Z,249.39
2023-04-15T09:50:05.106Z,247.74
2023-04-15T09:51:05.139Z,249.22
2023-04-15T09:52:06.514Z,249.67
2023-04-15T09:53:05.223Z,249.95
2023-04-15T09:54:05.270Z,249.36
2023-04-15T09:55:05.305Z,250.40
2023-04-15T09:56:05.350Z,248.01
2023-04-15T09:57:05.393Z,250.00
2023-04-15T09:58:05.439Z,249.00
2023-04-15T09:59:05.479Z,249.60
2023-04-15T10:00:05.533Z,250.00
2023-04-15T10:01:05.598Z,249.06
2023-04-15T10:02:05.625Z,249.71
2023-04-15T10:03:05.698Z,248.06
2023-04-15T10:04:06.101Z,248.29
2023-04-15T10:05:05.719Z,248.82
2023-04-15T10:06:05.790Z,248.96
2023-04-15T10:07:05.671Z,249.23
2023-04-15T10:08:05.658Z,249.90
2023-04-15T10:09:05.639Z,250.46
2023-04-15T10:10:05.618Z,252.90
2023-04-15T10:11:05.618Z,249.95
2023-04-15T10:12:05.582Z,248.91
2023-04-15T10:13:05.564Z,249.32
2023-04-15T10:14:05.574Z,249.74
2023-04-15T10:15:05.544Z,249.84
2023-04-15T10:16:05.614Z,249.92
2023-04-15T10:17:05.526Z,250.15
2023-04-15T10:18:05.577Z,250.76
2023-04-15T10:19:05.474Z,249.47
2023-04-15T10:20:05.565Z,248.08
2023-04-15T10:21:05.440Z,249.08
2023-04-15T10:22:05.426Z,249.59
2023-04-15T10:23:06.365Z,249.61
2023-04-15T10:24:05.404Z,249.76
2023-04-15T10:25:05.367Z,249.37
2023-04-15T10:26:05.362Z,249.33
2023-04-15T10:27:05.342Z,250.36
2023-04-15T10:28:05.313Z,248.73
2023-04-15T10:29:05.295Z,248.61
2023-04-15T10:30:05.281Z,248.75
2023-04-15T10:31:05.345Z,248.21
2023-04-15T10:32:05.309Z,248.74
2023-04-15T10:33:05.328Z,248.16
2023-04-15T10:34:05.352Z,248.17
2023-04-15T10:35:05.353Z,247.88
2023-04-15T10:36:05.377Z,249.04
2023-04-15T10:37:05.401Z,248.87
2023-04-15T10:38:05.429Z,248.66
2023-04-15T10:39:05.418Z,249.43
2023-04-15T10:40:05.428Z,248.40
2023-04-15T10:41:05.441Z,248.58
2023-04-15T10:42:05.454Z,248.63
2023-04-15T10:43:05.483Z,248.21
2023-04-15T10:44:05.696Z,248.89
2023-04-15T10:45:05.479Z,248.64
2023-04-15T10:46:05.552Z,249.89
2023-04-15T10:47:05.542Z,249.24
2023-04-15T10:48:05.534Z,249.03
2023-04-15T10:49:05.519Z,250.00
2023-04-15T10:50:05.505Z,248.89
2023-04-15T10:51:05.503Z,249.62
2023-04-15T10:52:05.521Z,248.63
2023-04-15T10:53:05.661Z,248.29
2023-04-15T10:54:05.732Z,248.93
2023-04-15T10:55:05.527Z,249.44
2023-04-15T10:56:05.531Z,248.26
2023-04-15T10:57:05.533Z,248.37
2023-04-15T10:58:05.502Z,248.45
2023-04-15T10:59:05.511Z,248.51
2023-04-15T11:00:05.447Z,248.66
2023-04-15T11:01:05.420Z,248.86
2023-04-15T11:02:05.538Z,249.20
2023-04-15T11:03:05.464Z,249.44
2023-04-15T11:04:05.475Z,249.69
2023-04-15T11:05:05.348Z,248.26
2023-04-15T11:06:05.304Z,248.09
2023-04-15T11:07:05.269Z,247.59
2023-04-15T11:08:05.232Z,249.28
2023-04-15T11:09:05.210Z,248.02
2023-04-15T11:10:05.201Z,248.01
2023-04-15T11:11:05.179Z,248.74
2023-04-15T11:12:05.167Z,247.48
2023-04-15T11:13:05.136Z,248.82
2023-04-15T11:14:05.180Z,248.46
2023-04-15T11:15:05.071Z,249.74
2023-04-15T11:16:05.080Z,248.54
2023-04-15T11:17:05.018Z,248.56
2023-04-15T11:18:05.076Z,248.68
2023-04-15T11:19:05.018Z,249.44
2023-04-15T11:20:05.007Z,249.31
2023-04-15T11:21:05.044Z,248.62
2023-04-15T11:22:05.013Z,248.68
2023-04-15T11:23:14.495Z,248.00
2023-04-15T11:24:06.274Z,248.14
2023-04-15T11:25:04.968Z,248.21
2023-04-15T11:26:04.941Z,248.14
2023-04-15T11:27:04.915Z,248.28
2023-04-15T11:28:04.881Z,248.37
2023-04-15T11:29:05.038Z,248.86
2023-04-15T11:30:04.899Z,248.84
2023-04-15T11:31:04.800Z,248.74
2023-04-15T11:32:04.782Z,247.64
2023-04-15T11:33:04.744Z,248.44
2023-04-15T11:34:04.780Z,248.31
2023-04-15T11:35:04.730Z,250.00
2023-04-15T11:36:04.730Z,248.30
2023-04-15T11:37:04.644Z,247.28
2023-04-15T11:38:04.610Z,249.16
2023-04-15T11:39:04.588Z,248.67
2023-04-15T11:40:04.585Z,248.19
2023-04-15T11:41:04.549Z,250.00
2023-04-15T11:42:04.552Z,247.57
2023-04-15T11:43:04.504Z,248.16
2023-04-15T11:44:04.663Z,248.77
2023-04-15T11:45:04.452Z,248.16
2023-04-15T11:46:04.514Z,249.19
2023-04-15T11:47:04.431Z,249.25
2023-04-15T11:48:04.392Z,249.24
2023-04-15T11:49:04.380Z,249.29
2023-04-15T11:50:04.342Z,249.05
2023-04-15T11:51:04.330Z,248.11
2023-04-15T11:52:04.310Z,249.54
2023-04-15T11:53:06.282Z,248.11
2023-04-15T11:54:04.504Z,246.92
2023-04-15T11:55:04.208Z,247.04
2023-04-15T11:56:04.183Z,247.07
2023-04-15T11:57:04.235Z,246.75
2023-04-15T11:58:04.130Z,246.73
2023-04-15T11:59:04.102Z,245.43
2023-04-15T12:00:04.104Z,241.00
2023-04-15T12:01:04.067Z,244.39
2023-04-15T12:02:04.096Z,244.18
2023-04-15T12:03:04.111Z,246.02
2023-04-15T12:04:04.607Z,246.17
2023-04-15T12:05:04.083Z,246.98
2023-04-15T12:06:03.967Z,246.22
2023-04-15T12:07:03.926Z,246.70
2023-04-15T12:08:03.904Z,247.83
2023-04-15T12:09:03.871Z,246.93
2023-04-15T12:10:03.862Z,246.62
2023-04-15T12:11:03.825Z,246.94
2023-04-15T12:12:03.802Z,246.43
2023-04-15T12:13:03.767Z,245.64
2023-04-15T12:14:03.981Z,246.07
2023-04-15T12:15:03.758Z,246.22
2023-04-15T12:16:03.683Z,246.43
2023-04-15T12:17:03.649Z,246.62
2023-04-15T12:18:03.638Z,246.73
2023-04-15T12:19:03.567Z,246.69
2023-04-15T12:20:03.551Z,248.04
2023-04-15T12:21:03.524Z,246.70
2023-04-15T12:22:03.500Z,248.03
2023-04-15T12:23:03.466Z,247.06
2023-04-15T12:24:04.059Z,247.30
2023-04-15T12:25:03.444Z,245.92
2023-04-15T12:26:03.406Z,247.21
2023-04-15T12:27:03.373Z,247.05
2023-04-15T12:28:03.352Z,246.66
2023-04-15T12:29:03.328Z,247.19
2023-04-15T12:30:03.324Z,247.35
2023-04-15T12:31:03.301Z,248.03
2023-04-15T12:32:03.244Z,248.05
2023-04-15T12:33:03.303Z,247.29
2023-04-15T12:34:03.433Z,247.27
2023-04-15T12:35:03.190Z,247.21
2023-04-15T12:36:03.148Z,247.29
2023-04-15T12:37:03.121Z,248.57
2023-04-15T12:38:03.100Z,247.02
2023-04-15T12:39:03.075Z,247.30
2023-04-15T12:40:03.143Z,246.60
2023-04-15T12:41:03.072Z,247.66